Flight Track Log - Related Links

Times and Time Zones

All times are in EST time to prevent confusion due to time zone crossing. See the SKW7363 flight status page for this flight to view local times or setup timezone preferences in your user account.

Time Position Orientation Groundspeed Altitude Reporting Facility
EST Latitude Longitude Course Direction KTS MPH feet Rate Location/Type
Wed 07:17:09 PM 40.7975 -111.9994 304° West 139 160 4,900  Level Salt Lake Center
Wed 07:17:41 PM 40.8167 -112.0003 358° North 138 159 5,800 1,857 Climbing Salt Lake Center
Wed 07:17:51 PM 40.8225 -112.0164 296° West 155 178 6,200 1,645 Climbing Salt Lake Center
Wed 07:18:43 PM 40.8331 -112.0561 289° West 164 189 7,500 1,522 Climbing Salt Lake Center
Wed 07:18:58 PM 40.8389 -112.0789 289° West 186 214 7,900 1,377 Climbing Salt Lake Center
Wed 07:19:44 PM 40.8544 -112.1208 296° West 197 227 8,900 1,626 Climbing Salt Lake Center
Wed 07:20:45 PM 40.8972 -112.1658 322° Northwest 195 224 10,800 1,512 Climbing Salt Lake Center
Wed 07:21:47 PM 40.9394 -112.2125 320° Northwest 194 223 12,000 634 Climbing Salt Lake Center
Wed 07:22:00 PM 41.0615 -112.3684 304° West  Level Estimated
Wed 07:22:48 PM 41.0028 -112.2811 321° Northwest 246 283 12,100  Level Salt Lake Center
Wed 07:23:50 PM 41.0575 -112.3400 321° Northwest 254 292 12,000 829 Descending Salt Lake Center
Wed 07:24:51 PM 41.1086 -112.3950 321° Northwest 234 269 13,800 1,024 Climbing Salt Lake Center
Wed 07:25:53 PM 41.1603 -112.4447 324° Northwest 231 266 14,100 927 Climbing Salt Lake Center
Wed 07:26:54 PM 41.2053 -112.5072 314° West 234 269 15,700 1,512 Climbing Salt Lake Center
Wed 07:27:56 PM 41.2447 -112.5714 309° West 226 260 17,200 1,366 Climbing Salt Lake Center
Wed 07:28:57 PM 41.2872 -112.6344 312° West 226 260 18,500 1,268 Climbing Salt Lake Center
Wed 07:29:59 PM 41.3275 -112.6958 311° West 225 259 19,800 683 Climbing Salt Lake Center
Wed 07:31:00 PM 41.3717 -112.7636 311° West 243 280 19,900 98 Climbing Salt Lake Center
Wed 07:32:01 PM 41.4311 -112.8528 312° West 268 308 20,000 49 Climbing Salt Lake Center
Wed 07:33:03 PM 41.4794 -112.9275 311° West 265 305 20,000  Level Salt Lake Center
Wed 07:34:04 PM 41.5258 -113.0011 310° West 261 300 20,000  Level Salt Lake Center
Wed 07:35:06 PM 41.5733 -113.0714 312° West 257 296 20,000  Level Salt Lake Center
Wed 07:36:07 PM 41.6217 -113.1411 313° West 256 295 20,000  Level Salt Lake Center
Wed 07:37:09 PM 41.6669 -113.2125 310° West 254 292 20,000  Level Salt Lake Center
Wed 07:38:10 PM 41.7125 -113.2839 311° West 253 291 20,000  Level Salt Lake Center
Wed 07:39:11 PM 41.7575 -113.3547 310° West 251 289 20,000  Level Salt Lake Center
Wed 07:40:13 PM 41.8031 -113.4244 311° West 250 288 20,000  Level Salt Lake Center
Wed 07:41:14 PM 41.8594 -113.5111 311° West 254 292 20,000  Level Salt Lake Center
Wed 07:42:16 PM 41.9075 -113.5864 311° West 263 303 20,000  Level Salt Lake Center
Wed 07:43:17 PM 41.9542 -113.6589 311° West 258 297 20,000 -541 Level Salt Lake Center
Wed 07:44:18 PM 42.0011 -113.7306 311° West 256 295 18,900 -1,073 Descending Salt Lake Center
Wed 07:45:20 PM 42.0486 -113.8058 310° West 262 302 17,800 -1,317 Descending Salt Lake Center
Wed 07:46:21 PM 42.0975 -113.8803 312° West 265 305 16,200 -1,525 Descending Salt Lake Center
Wed 07:47:22 PM 42.1447 -113.9542 311° West 263 303 14,700 -1,220 Descending Salt Lake Center
Wed 07:48:24 PM 42.1894 -114.0247 311° West 255 293 13,700 -1,024 Descending Salt Lake Center
Wed 07:49:25 PM 42.2350 -114.0956 311° West 247 284 12,600 -1,388 Descending Salt Lake Center
Wed 07:50:51 PM 42.2933 -114.1900 310° West 185 213 10,300 -1,061 Descending Salt Lake Center
Wed 07:51:52 PM 42.3342 -114.2508 312° West 208 239 10,000 -146 Descending Salt Lake Center
Wed 07:52:54 PM 42.3828 -114.2206 25° Northeast 209 241 10,000  Level Salt Lake Center
Wed 07:53:55 PM 42.4419 -114.2111 North 206 237 10,000 -148 Level Salt Lake Center
Wed 07:54:56 PM 42.4783 -114.2642 313° West 206 237 9,700 -295 Descending Salt Lake Center

Login

Don't have an account? Register now (free) for customized features, flight alerts, and more!